sensor_id;sensor_type;location;lat;lon;timestamp;temperature;humidity
22153;DHT22;11242;50.536;12.688;2023-08-31T00:01:39;12.80;99.90
22153;DHT22;11242;50.536;12.688;2023-08-31T00:04:05;12.60;99.90
22153;DHT22;11242;50.536;12.688;2023-08-31T00:06:34;12.40;99.90
22153;DHT22;11242;50.536;12.688;2023-08-31T00:08:59;12.30;99.90
22153;DHT22;11242;50.536;12.688;2023-08-31T00:11:25;12.10;99.90
22153;DHT22;11242;50.536;12.688;2023-08-31T00:13:51;12.00;99.90
22153;DHT22;11242;50.536;12.688;2023-08-31T00:16:19;11.90;99.90
22153;DHT22;11242;50.536;12.688;2023-08-31T00:18:49;11.90;99.90
22153;DHT22;11242;50.536;12.688;2023-08-31T00:21:14;11.80;99.90
22153;DHT22;11242;50.536;12.688;2023-08-31T00:23:40;11.80;99.90
22153;DHT22;11242;50.536;12.688;2023-08-31T00:26:05;11.90;99.90
22153;DHT22;11242;50.536;12.688;2023-08-31T00:28:32;11.90;99.90
22153;DHT22;11242;50.536;12.688;2023-08-31T00:31:00;11.90;99.90
22153;DHT22;11242;50.536;12.688;2023-08-31T00:33:29;12.00;99.90
22153;DHT22;11242;50.536;12.688;2023-08-31T00:35:59;11.90;99.90
22153;DHT22;11242;50.536;12.688;2023-08-31T00:38:27;11.90;99.90
22153;DHT22;11242;50.536;12.688;2023-08-31T00:40:52;11.90;99.90
22153;DHT22;11242;50.536;12.688;2023-08-31T00:43:20;11.90;99.90
22153;DHT22;11242;50.536;12.688;2023-08-31T00:45:48;11.90;99.90
22153;DHT22;11242;50.536;12.688;2023-08-31T00:48:16;12.00;99.90
22153;DHT22;11242;50.536;12.688;2023-08-31T00:50:48;12.00;99.90
22153;DHT22;11242;50.536;12.688;2023-08-31T00:53:14;12.00;99.90
22153;DHT22;11242;50.536;12.688;2023-08-31T00:55:40;12.00;99.90
22153;DHT22;11242;50.536;12.688;2023-08-31T00:58:09;12.00;99.90
22153;DHT22;11242;50.536;12.688;2023-08-31T01:03:43;12.00;99.90
22153;DHT22;11242;50.536;12.688;2023-08-31T01:09:01;12.00;99.90
22153;DHT22;11242;50.536;12.688;2023-08-31T01:12:20;11.90;99.90
22153;DHT22;11242;50.536;12.688;2023-08-31T01:15:09;11.90;99.90
22153;DHT22;11242;50.536;12.688;2023-08-31T01:17:48;11.90;99.90
22153;DHT22;11242;50.536;12.688;2023-08-31T01:20:19;11.90;99.90
22153;DHT22;11242;50.536;12.688;2023-08-31T01:22:55;11.80;99.90
22153;DHT22;11242;50.536;12.688;2023-08-31T01:25:21;11.70;99.90
22153;DHT22;11242;50.536;12.688;2023-08-31T01:27:48;11.60;99.90
22153;DHT22;11242;50.536;12.688;2023-08-31T01:30:14;11.60;99.90
22153;DHT22;11242;50.536;12.688;2023-08-31T01:32:47;11.50;99.90
22153;DHT22;11242;50.536;12.688;2023-08-31T01:35:16;11.40;99.90
22153;DHT22;11242;50.536;12.688;2023-08-31T01:42:47;11.00;99.90
22153;DHT22;11242;50.536;12.688;2023-08-31T01:45:19;11.00;99.90
22153;DHT22;11242;50.536;12.688;2023-08-31T01:47:46;10.90;99.90
22153;DHT22;11242;50.536;12.688;2023-08-31T01:50:12;10.90;99.90
22153;DHT22;11242;50.536;12.688;2023-08-31T01:52:38;10.90;99.90
22153;DHT22;11242;50.536;12.688;2023-08-31T01:55:05;10.90;99.90
22153;DHT22;11242;50.536;12.688;2023-08-31T01:57:32;10.90;99.90
22153;DHT22;11242;50.536;12.688;2023-08-31T02:00:16;10.90;99.90
22153;DHT22;11242;50.536;12.688;2023-08-31T02:02:42;10.90;99.90
22153;DHT22;11242;50.536;12.688;2023-08-31T02:05:08;10.90;99.90
22153;DHT22;11242;50.536;12.688;2023-08-31T02:07:34;10.80;99.90
22153;DHT22;11242;50.536;12.688;2023-08-31T02:10:01;10.80;99.90
22153;DHT22;11242;50.536;12.688;2023-08-31T02:12:27;10.80;99.90
22153;DHT22;11242;50.536;12.688;2023-08-31T02:14:53;10.80;99.90
22153;DHT22;11242;50.536;12.688;2023-08-31T02:17:19;10.80;99.90
22153;DHT22;11242;50.536;12.688;2023-08-31T02:19:44;10.80;99.90
22153;DHT22;11242;50.536;12.688;2023-08-31T02:22:10;10.70;99.90
22153;DHT22;11242;50.536;12.688;2023-08-31T02:24:36;10.70;99.90
22153;DHT22;11242;50.536;12.688;2023-08-31T02:27:01;10.70;99.90
22153;DHT22;11242;50.536;12.688;2023-08-31T02:29:27;10.60;99.90
22153;DHT22;11242;50.536;12.688;2023-08-31T02:31:53;10.60;99.90
22153;DHT22;11242;50.536;12.688;2023-08-31T02:34:19;10.60;99.90
22153;DHT22;11242;50.536;12.688;2023-08-31T02:36:44;10.60;99.90
22153;DHT22;11242;50.536;12.688;2023-08-31T02:39:10;10.70;99.90
22153;DHT22;11242;50.536;12.688;2023-08-31T02:41:36;10.70;99.90
22153;DHT22;11242;50.536;12.688;2023-08-31T02:44:03;10.80;99.90
22153;DHT22;11242;50.536;12.688;2023-08-31T02:46:29;10.80;99.90
22153;DHT22;11242;50.536;12.688;2023-08-31T02:48:55;10.90;99.90
22153;DHT22;11242;50.536;12.688;2023-08-31T02:51:21;11.00;99.90
22153;DHT22;11242;50.536;12.688;2023-08-31T02:53:47;11.10;99.90
22153;DHT22;11242;50.536;12.688;2023-08-31T02:56:14;11.20;99.90
22153;DHT22;11242;50.536;12.688;2023-08-31T02:58:39;11.30;99.90
22153;DHT22;11242;50.536;12.688;2023-08-31T03:01:12;11.30;99.90
22153;DHT22;11242;50.536;12.688;2023-08-31T03:03:41;11.30;99.90
22153;DHT22;11242;50.536;12.688;2023-08-31T03:06:08;11.20;99.90
22153;DHT22;11242;50.536;12.688;2023-08-31T03:08:34;11.10;99.90
22153;DHT22;11242;50.536;12.688;2023-08-31T03:11:01;11.00;99.90
22153;DHT22;11242;50.536;12.688;2023-08-31T03:13:27;10.90;99.90
22153;DHT22;11242;50.536;12.688;2023-08-31T03:15:52;10.90;99.90
22153;DHT22;11242;50.536;12.688;2023-08-31T03:18:18;10.80;99.90
22153;DHT22;11242;50.536;12.688;2023-08-31T03:20:44;10.80;99.90
22153;DHT22;11242;50.536;12.688;2023-08-31T03:23:09;10.90;99.90
22153;DHT22;11242;50.536;12.688;2023-08-31T03:25:36;11.00;99.90
22153;DHT22;11242;50.536;12.688;2023-08-31T03:28:03;11.10;99.90
22153;DHT22;11242;50.536;12.688;2023-08-31T03:30:28;11.20;99.90
22153;DHT22;11242;50.536;12.688;2023-08-31T03:32:54;11.20;99.90
22153;DHT22;11242;50.536;12.688;2023-08-31T03:35:20;11.30;99.90
22153;DHT22;11242;50.536;12.688;2023-08-31T03:37:53;11.30;99.90
22153;DHT22;11242;50.536;12.688;2023-08-31T03:40:19;11.30;99.90
22153;DHT22;11242;50.536;12.688;2023-08-31T03:42:44;11.20;99.90
22153;DHT22;11242;50.536;12.688;2023-08-31T03:45:11;11.10;99.90
22153;DHT22;11242;50.536;12.688;2023-08-31T03:47:37;10.90;99.90
22153;DHT22;11242;50.536;12.688;2023-08-31T03:50:03;10.80;99.90
22153;DHT22;11242;50.536;12.688;2023-08-31T03:52:29;10.60;99.90
22153;DHT22;11242;50.536;12.688;2023-08-31T03:54:55;10.50;99.90
22153;DHT22;11242;50.536;12.688;2023-08-31T03:57:22;10.40;99.90
22153;DHT22;11242;50.536;12.688;2023-08-31T03:59:49;10.40;99.90
22153;DHT22;11242;50.536;12.688;2023-08-31T04:02:14;10.30;99.90
22153;DHT22;11242;50.536;12.688;2023-08-31T04:04:40;10.30;99.90
22153;DHT22;11242;50.536;12.688;2023-08-31T04:07:06;10.40;99.90
22153;DHT22;11242;50.536;12.688;2023-08-31T04:09:32;10.50;99.90
22153;DHT22;11242;50.536;12.688;2023-08-31T04:11:58;10.60;99.90
22153;DHT22;11242;50.536;12.688;2023-08-31T04:14:26;10.70;99.90
22153;DHT22;11242;50.536;12.688;2023-08-31T04:16:53;10.80;99.90
22153;DHT22;11242;50.536;12.688;2023-08-31T04:19:18;10.80;99.90
22153;DHT22;11242;50.536;12.688;2023-08-31T04:21:44;10.90;99.90
22153;DHT22;11242;50.536;12.688;2023-08-31T04:24:09;11.00;99.90
22153;DHT22;11242;50.536;12.688;2023-08-31T04:26:36;11.00;99.90
22153;DHT22;11242;50.536;12.688;2023-08-31T04:29:02;11.00;99.90
22153;DHT22;11242;50.536;12.688;2023-08-31T04:31:28;11.10;99.90
22153;DHT22;11242;50.536;12.688;2023-08-31T04:33:54;11.10;99.90
22153;DHT22;11242;50.536;12.688;2023-08-31T04:36:21;11.10;99.90
22153;DHT22;11242;50.536;12.688;2023-08-31T04:38:48;11.10;99.90
22153;DHT22;11242;50.536;12.688;2023-08-31T04:41:14;11.20;99.90
22153;DHT22;11242;50.536;12.688;2023-08-31T04:43:40;11.20;99.90
22153;DHT22;11242;50.536;12.688;2023-08-31T04:46:06;11.30;99.90
22153;DHT22;11242;50.536;12.688;2023-08-31T04:48:32;11.30;99.90
22153;DHT22;11242;50.536;12.688;2023-08-31T04:50:58;11.30;99.90
22153;DHT22;11242;50.536;12.688;2023-08-31T04:53:24;11.30;99.90
22153;DHT22;11242;50.536;12.688;2023-08-31T04:55:49;11.30;99.90
22153;DHT22;11242;50.536;12.688;2023-08-31T04:58:15;11.40;99.90
22153;DHT22;11242;50.536;12.688;2023-08-31T05:00:41;11.40;99.90
22153;DHT22;11242;50.536;12.688;2023-08-31T05:03:06;11.40;99.90
22153;DHT22;11242;50.536;12.688;2023-08-31T05:05:32;11.50;99.90
22153;DHT22;11242;50.536;12.688;2023-08-31T05:07:58;11.40;99.90
22153;DHT22;11242;50.536;12.688;2023-08-31T05:10:24;11.40;99.90
22153;DHT22;11242;50.536;12.688;2023-08-31T05:12:50;11.40;99.90
22153;DHT22;11242;50.536;12.688;2023-08-31T05:15:15;11.40;99.90
22153;DHT22;11242;50.536;12.688;2023-08-31T05:17:41;11.30;99.90
22153;DHT22;11242;50.536;12.688;2023-08-31T05:20:07;11.40;99.90
22153;DHT22;11242;50.536;12.688;2023-08-31T05:22:35;11.40;99.90
22153;DHT22;11242;50.536;12.688;2023-08-31T05:25:01;11.40;99.90
22153;DHT22;11242;50.536;12.688;2023-08-31T05:27:26;11.50;99.90
22153;DHT22;11242;50.536;12.688;2023-08-31T05:29:52;11.50;99.90
22153;DHT22;11242;50.536;12.688;2023-08-31T05:32:18;11.50;99.90
22153;DHT22;11242;50.536;12.688;2023-08-31T05:34:43;11.50;99.90
22153;DHT22;11242;50.536;12.688;2023-08-31T05:37:09;11.60;99.90
22153;DHT22;11242;50.536;12.688;2023-08-31T05:39:34;11.60;99.90
22153;DHT22;11242;50.536;12.688;2023-08-31T05:42:00;11.60;99.90
22153;DHT22;11242;50.536;12.688;2023-08-31T05:44:26;11.60;99.90
22153;DHT22;11242;50.536;12.688;2023-08-31T05:46:52;11.60;99.90
22153;DHT22;11242;50.536;12.688;2023-08-31T05:49:18;11.60;99.90
22153;DHT22;11242;50.536;12.688;2023-08-31T05:51:43;11.60;99.90
22153;DHT22;11242;50.536;12.688;2023-08-31T05:54:09;11.60;99.90
22153;DHT22;11242;50.536;12.688;2023-08-31T05:56:38;11.80;99.90
22153;DHT22;11242;50.536;12.688;2023-08-31T05:59:07;12.00;99.90
22153;DHT22;11242;50.536;12.688;2023-08-31T06:01:35;12.40;99.90
22153;DHT22;11242;50.536;12.688;2023-08-31T06:04:02;13.50;99.90
22153;DHT22;11242;50.536;12.688;2023-08-31T06:06:29;14.50;99.90
22153;DHT22;11242;50.536;12.688;2023-08-31T06:08:54;15.40;99.90
22153;DHT22;11242;50.536;12.688;2023-08-31T06:11:20;16.10;99.90
22153;DHT22;11242;50.536;12.688;2023-08-31T06:13:46;16.70;99.90
22153;DHT22;11242;50.536;12.688;2023-08-31T06:16:12;17.20;99.90
22153;DHT22;11242;50.536;12.688;2023-08-31T06:18:37;17.40;99.90
22153;DHT22;11242;50.536;12.688;2023-08-31T06:21:03;18.00;99.90
22153;DHT22;11242;50.536;12.688;2023-08-31T06:23:29;17.90;99.90
22153;DHT22;11242;50.536;12.688;2023-08-31T06:25:54;18.60;99.90
22153;DHT22;11242;50.536;12.688;2023-08-31T06:28:20;19.80;99.90
22153;DHT22;11242;50.536;12.688;2023-08-31T06:30:45;19.40;99.90
22153;DHT22;11242;50.536;12.688;2023-08-31T06:33:14;19.20;99.90
22153;DHT22;11242;50.536;12.688;2023-08-31T06:35:40;18.70;99.90
22153;DHT22;11242;50.536;12.688;2023-08-31T06:38:06;18.60;99.90
22153;DHT22;11242;50.536;12.688;2023-08-31T06:40:31;18.40;99.90
22153;DHT22;11242;50.536;12.688;2023-08-31T06:42:57;17.80;99.90
22153;DHT22;11242;50.536;12.688;2023-08-31T06:45:22;17.30;99.90
22153;DHT22;11242;50.536;12.688;2023-08-31T06:47:48;18.00;99.90
22153;DHT22;11242;50.536;12.688;2023-08-31T06:50:14;19.30;99.90
22153;DHT22;11242;50.536;12.688;2023-08-31T06:52:39;19.50;99.90
22153;DHT22;11242;50.536;12.688;2023-08-31T06:55:06;20.00;99.90
22153;DHT22;11242;50.536;12.688;2023-08-31T06:57:32;19.60;99.90
22153;DHT22;11242;50.536;12.688;2023-08-31T06:59:58;20.80;99.90
22153;DHT22;11242;50.536;12.688;2023-08-31T07:02:26;21.00;99.90
22153;DHT22;11242;50.536;12.688;2023-08-31T07:04:52;21.20;99.90
22153;DHT22;11242;50.536;12.688;2023-08-31T07:07:18;21.20;99.90
22153;DHT22;11242;50.536;12.688;2023-08-31T07:09:45;20.00;99.90
22153;DHT22;11242;50.536;12.688;2023-08-31T07:12:11;19.90;99.90
22153;DHT22;11242;50.536;12.688;2023-08-31T07:14:36;20.70;99.90
22153;DHT22;11242;50.536;12.688;2023-08-31T07:17:02;20.80;99.90
22153;DHT22;11242;50.536;12.688;2023-08-31T07:19:28;21.20;99.90
22153;DHT22;11242;50.536;12.688;2023-08-31T07:21:53;22.10;99.50
22153;DHT22;11242;50.536;12.688;2023-08-31T07:24:23;21.50;99.80
22153;DHT22;11242;50.536;12.688;2023-08-31T07:26:49;20.20;99.90
22153;DHT22;11242;50.536;12.688;2023-08-31T07:29:15;19.80;99.90
22153;DHT22;11242;50.536;12.688;2023-08-31T07:31:40;20.40;99.90
22153;DHT22;11242;50.536;12.688;2023-08-31T07:34:06;21.30;99.90
22153;DHT22;11242;50.536;12.688;2023-08-31T07:36:31;21.20;99.90
22153;DHT22;11242;50.536;12.688;2023-08-31T07:38:57;21.90;98.20
22153;DHT22;11242;50.536;12.688;2023-08-31T07:41:23;22.90;95.10
22153;DHT22;11242;50.536;12.688;2023-08-31T07:43:49;23.00;94.60
22153;DHT22;11242;50.536;12.688;2023-08-31T07:46:15;22.90;95.80
22153;DHT22;11242;50.536;12.688;2023-08-31T07:48:41;22.80;94.20
22153;DHT22;11242;50.536;12.688;2023-08-31T07:51:07;21.50;95.50
22153;DHT22;11242;50.536;12.688;2023-08-31T07:53:33;20.90;96.90
22153;DHT22;11242;50.536;12.688;2023-08-31T07:55:59;21.40;95.90
22153;DHT22;11242;50.536;12.688;2023-08-31T07:58:24;20.50;97.20
22153;DHT22;11242;50.536;12.688;2023-08-31T08:00:55;20.80;96.30
22153;DHT22;11242;50.536;12.688;2023-08-31T08:03:22;20.20;98.60
22153;DHT22;11242;50.536;12.688;2023-08-31T08:05:48;21.20;96.60
22153;DHT22;11242;50.536;12.688;2023-08-31T08:08:14;22.40;94.50
22153;DHT22;11242;50.536;12.688;2023-08-31T08:10:39;23.90;91.50
22153;DHT22;11242;50.536;12.688;2023-08-31T08:13:05;22.60;92.60
22153;DHT22;11242;50.536;12.688;2023-08-31T08:15:31;22.20;93.40
22153;DHT22;11242;50.536;12.688;2023-08-31T08:17:56;22.40;92.30
22153;DHT22;11242;50.536;12.688;2023-08-31T08:20:23;21.70;92.60
22153;DHT22;11242;50.536;12.688;2023-08-31T08:22:49;22.30;92.50
22153;DHT22;11242;50.536;12.688;2023-08-31T08:25:19;22.80;91.30
22153;DHT22;11242;50.536;12.688;2023-08-31T08:27:45;22.70;91.30
22153;DHT22;11242;50.536;12.688;2023-08-31T08:30:11;22.10;91.20
22153;DHT22;11242;50.536;12.688;2023-08-31T08:32:36;23.00;91.00
22153;DHT22;11242;50.536;12.688;2023-08-31T08:35:02;23.90;90.00
22153;DHT22;11242;50.536;12.688;2023-08-31T08:37:28;25.80;84.50
22153;DHT22;11242;50.536;12.688;2023-08-31T08:39:55;24.60;81.30
22153;DHT22;11242;50.536;12.688;2023-08-31T08:42:24;22.70;86.30
22153;DHT22;11242;50.536;12.688;2023-08-31T08:44:50;21.80;91.10
22153;DHT22;11242;50.536;12.688;2023-08-31T08:47:16;23.20;89.30
22153;DHT22;11242;50.536;12.688;2023-08-31T08:49:42;23.70;83.30
22153;DHT22;11242;50.536;12.688;2023-08-31T08:52:09;21.40;89.60
22153;DHT22;11242;50.536;12.688;2023-08-31T08:54:35;21.00;91.50
22153;DHT22;11242;50.536;12.688;2023-08-31T08:57:01;21.50;90.70
22153;DHT22;11242;50.536;12.688;2023-08-31T08:59:32;21.80;90.50
22153;DHT22;11242;50.536;12.688;2023-08-31T09:01:58;21.00;90.70
22153;DHT22;11242;50.536;12.688;2023-08-31T09:04:23;19.80;91.90
22153;DHT22;11242;50.536;12.688;2023-08-31T09:06:52;19.70;93.10
22153;DHT22;11242;50.536;12.688;2023-08-31T09:09:18;18.70;94.00
22153;DHT22;11242;50.536;12.688;2023-08-31T09:11:45;18.90;94.20
22153;DHT22;11242;50.536;12.688;2023-08-31T09:14:15;18.40;95.00
22153;DHT22;11242;50.536;12.688;2023-08-31T09:16:44;17.70;97.10
22153;DHT22;11242;50.536;12.688;2023-08-31T09:19:22;17.50;99.20
22153;DHT22;11242;50.536;12.688;2023-08-31T09:21:49;16.90;99.90
22153;DHT22;11242;50.536;12.688;2023-08-31T09:24:15;16.60;99.90
22153;DHT22;11242;50.536;12.688;2023-08-31T09:26:47;16.80;99.90
22153;DHT22;11242;50.536;12.688;2023-08-31T09:29:13;17.00;99.90
22153;DHT22;11242;50.536;12.688;2023-08-31T09:31:43;17.10;99.90
22153;DHT22;11242;50.536;12.688;2023-08-31T09:34:12;16.80;99.90
22153;DHT22;11242;50.536;12.688;2023-08-31T09:36:38;16.60;99.90
22153;DHT22;11242;50.536;12.688;2023-08-31T09:39:05;16.40;99.90
22153;DHT22;11242;50.536;12.688;2023-08-31T09:41:31;16.60;99.90
22153;DHT22;11242;50.536;12.688;2023-08-31T09:44:14;16.80;99.90
22153;DHT22;11242;50.536;12.688;2023-08-31T09:46:40;17.10;99.90
22153;DHT22;11242;50.536;12.688;2023-08-31T09:49:07;17.30;99.90
22153;DHT22;11242;50.536;12.688;2023-08-31T09:51:33;17.60;99.90
22153;DHT22;11242;50.536;12.688;2023-08-31T09:54:01;17.70;99.90
22153;DHT22;11242;50.536;12.688;2023-08-31T09:56:33;17.60;99.90
22153;DHT22;11242;50.536;12.688;2023-08-31T09:59:00;17.60;99.90
22153;DHT22;11242;50.536;12.688;2023-08-31T10:01:26;17.40;99.90
22153;DHT22;11242;50.536;12.688;2023-08-31T10:03:52;17.30;99.90
22153;DHT22;11242;50.536;12.688;2023-08-31T10:06:18;16.90;99.90
22153;DHT22;11242;50.536;12.688;2023-08-31T10:08:45;16.50;99.90
22153;DHT22;11242;50.536;12.688;2023-08-31T10:11:11;16.50;99.90
22153;DHT22;11242;50.536;12.688;2023-08-31T10:13:41;16.70;99.90
22153;DHT22;11242;50.536;12.688;2023-08-31T10:16:07;16.80;99.90
22153;DHT22;11242;50.536;12.688;2023-08-31T10:18:34;17.00;99.90
22153;DHT22;11242;50.536;12.688;2023-08-31T10:21:02;17.30;99.90
22153;DHT22;11242;50.536;12.688;2023-08-31T10:23:28;17.70;99.90
22153;DHT22;11242;50.536;12.688;2023-08-31T10:28:21;18.00;99.90
22153;DHT22;11242;50.536;12.688;2023-08-31T10:31:00;17.90;99.90
22153;DHT22;11242;50.536;12.688;2023-08-31T10:36:21;17.30;99.90
22153;DHT22;11242;50.536;12.688;2023-08-31T10:41:23;17.50;99.90
22153;DHT22;11242;50.536;12.688;2023-08-31T10:43:54;17.70;99.90
22153;DHT22;11242;50.536;12.688;2023-08-31T10:46:30;17.60;99.90
22153;DHT22;11242;50.536;12.688;2023-08-31T10:51:34;17.30;99.90
22153;DHT22;11242;50.536;12.688;2023-08-31T10:56:32;17.40;99.90
22153;DHT22;11242;50.536;12.688;2023-08-31T10:59:01;17.50;99.90
22153;DHT22;11242;50.536;12.688;2023-08-31T11:04:26;17.50;99.90
22153;DHT22;11242;50.536;12.688;2023-08-31T11:07:17;17.70;99.90
22153;DHT22;11242;50.536;12.688;2023-08-31T11:09:45;17.60;99.90
22153;DHT22;11242;50.536;12.688;2023-08-31T11:12:12;17.70;99.90
22153;DHT22;11242;50.536;12.688;2023-08-31T11:14:38;18.10;99.90
22153;DHT22;11242;50.536;12.688;2023-08-31T11:17:04;18.30;99.90
22153;DHT22;11242;50.536;12.688;2023-08-31T11:19:32;17.80;99.90
22153;DHT22;11242;50.536;12.688;2023-08-31T11:21:59;17.60;99.90
22153;DHT22;11242;50.536;12.688;2023-08-31T11:24:25;17.50;99.90
22153;DHT22;11242;50.536;12.688;2023-08-31T11:26:51;17.40;99.90
22153;DHT22;11242;50.536;12.688;2023-08-31T11:29:17;17.30;99.90
22153;DHT22;11242;50.536;12.688;2023-08-31T11:31:43;17.50;99.90
22153;DHT22;11242;50.536;12.688;2023-08-31T11:34:13;17.50;99.90
22153;DHT22;11242;50.536;12.688;2023-08-31T11:36:39;17.90;99.90
22153;DHT22;11242;50.536;12.688;2023-08-31T11:39:06;18.00;99.90
22153;DHT22;11242;50.536;12.688;2023-08-31T11:41:35;17.80;99.90
22153;DHT22;11242;50.536;12.688;2023-08-31T11:44:03;17.60;99.90
22153;DHT22;11242;50.536;12.688;2023-08-31T11:46:30;17.80;99.90
22153;DHT22;11242;50.536;12.688;2023-08-31T11:48:56;17.90;99.90
22153;DHT22;11242;50.536;12.688;2023-08-31T11:51:22;17.90;99.90
22153;DHT22;11242;50.536;12.688;2023-08-31T11:53:48;17.90;99.90
22153;DHT22;11242;50.536;12.688;2023-08-31T11:56:14;18.00;99.90
22153;DHT22;11242;50.536;12.688;2023-08-31T11:58:43;17.90;99.90
22153;DHT22;11242;50.536;12.688;2023-08-31T12:01:17;17.50;99.90
22153;DHT22;11242;50.536;12.688;2023-08-31T12:03:44;17.30;99.90
22153;DHT22;11242;50.536;12.688;2023-08-31T12:06:10;17.60;99.90
22153;DHT22;11242;50.536;12.688;2023-08-31T12:08:36;18.20;99.90
22153;DHT22;11242;50.536;12.688;2023-08-31T12:11:02;18.40;99.90
22153;DHT22;11242;50.536;12.688;2023-08-31T12:13:28;18.40;99.90
22153;DHT22;11242;50.536;12.688;2023-08-31T12:15:55;18.30;99.90
22153;DHT22;11242;50.536;12.688;2023-08-31T12:18:20;18.50;99.90
22153;DHT22;11242;50.536;12.688;2023-08-31T12:20:47;18.60;99.90
22153;DHT22;11242;50.536;12.688;2023-08-31T12:23:13;18.70;99.90
22153;DHT22;11242;50.536;12.688;2023-08-31T12:25:48;18.90;99.90
22153;DHT22;11242;50.536;12.688;2023-08-31T12:28:14;18.90;99.30
22153;DHT22;11242;50.536;12.688;2023-08-31T12:30:42;19.00;99.60
22153;DHT22;11242;50.536;12.688;2023-08-31T12:33:09;19.00;97.00
22153;DHT22;11242;50.536;12.688;2023-08-31T12:35:35;18.80;96.70
22153;DHT22;11242;50.536;12.688;2023-08-31T12:38:01;18.30;95.90
22153;DHT22;11242;50.536;12.688;2023-08-31T12:40:27;17.90;95.90
22153;DHT22;11242;50.536;12.688;2023-08-31T12:42:52;17.90;96.90
22153;DHT22;11242;50.536;12.688;2023-08-31T12:45:18;18.00;96.40
22153;DHT22;11242;50.536;12.688;2023-08-31T12:47:44;18.30;96.60
22153;DHT22;11242;50.536;12.688;2023-08-31T12:50:09;18.60;96.20
22153;DHT22;11242;50.536;12.688;2023-08-31T12:52:35;18.60;96.50
22153;DHT22;11242;50.536;12.688;2023-08-31T12:55:01;18.50;95.60
22153;DHT22;11242;50.536;12.688;2023-08-31T12:57:27;18.30;96.10
22153;DHT22;11242;50.536;12.688;2023-08-31T12:59:52;18.20;95.60
22153;DHT22;11242;50.536;12.688;2023-08-31T13:02:18;18.20;96.50
22153;DHT22;11242;50.536;12.688;2023-08-31T13:04:45;18.30;96.90
22153;DHT22;11242;50.536;12.688;2023-08-31T13:07:11;18.40;97.10
22153;DHT22;11242;50.536;12.688;2023-08-31T13:09:36;18.70;97.40
22153;DHT22;11242;50.536;12.688;2023-08-31T13:12:02;19.20;96.10
22153;DHT22;11242;50.536;12.688;2023-08-31T13:14:28;19.50;95.30
22153;DHT22;11242;50.536;12.688;2023-08-31T13:16:53;19.40;95.70
22153;DHT22;11242;50.536;12.688;2023-08-31T13:19:19;19.30;94.20
22153;DHT22;11242;50.536;12.688;2023-08-31T13:21:44;19.10;92.60
22153;DHT22;11242;50.536;12.688;2023-08-31T13:24:11;19.10;92.80
22153;DHT22;11242;50.536;12.688;2023-08-31T13:26:36;18.90;92.80
22153;DHT22;11242;50.536;12.688;2023-08-31T13:29:02;18.70;91.30
22153;DHT22;11242;50.536;12.688;2023-08-31T13:31:27;18.70;91.30
22153;DHT22;11242;50.536;12.688;2023-08-31T13:33:54;18.60;92.00
22153;DHT22;11242;50.536;12.688;2023-08-31T13:36:19;18.60;92.10
22153;DHT22;11242;50.536;12.688;2023-08-31T13:38:45;18.50;92.10
22153;DHT22;11242;50.536;12.688;2023-08-31T13:41:10;18.50;92.20
22153;DHT22;11242;50.536;12.688;2023-08-31T13:43:36;18.20;91.20
22153;DHT22;11242;50.536;12.688;2023-08-31T13:46:01;18.10;91.60
22153;DHT22;11242;50.536;12.688;2023-08-31T13:48:27;18.00;92.30
22153;DHT22;11242;50.536;12.688;2023-08-31T13:50:53;18.10;92.80
22153;DHT22;11242;50.536;12.688;2023-08-31T13:53:19;18.10;92.70
22153;DHT22;11242;50.536;12.688;2023-08-31T13:55:44;18.10;94.00
22153;DHT22;11242;50.536;12.688;2023-08-31T13:58:10;18.20;94.00
22153;DHT22;11242;50.536;12.688;2023-08-31T14:00:36;18.20;94.70
22153;DHT22;11242;50.536;12.688;2023-08-31T14:03:01;18.00;95.00
22153;DHT22;11242;50.536;12.688;2023-08-31T14:05:30;18.20;95.60
22153;DHT22;11242;50.536;12.688;2023-08-31T14:07:57;18.20;95.80
22153;DHT22;11242;50.536;12.688;2023-08-31T14:10:24;18.30;96.70
22153;DHT22;11242;50.536;12.688;2023-08-31T14:12:50;18.50;96.10
22153;DHT22;11242;50.536;12.688;2023-08-31T14:15:15;18.30;96.50
22153;DHT22;11242;50.536;12.688;2023-08-31T14:17:41;18.20;97.00
22153;DHT22;11242;50.536;12.688;2023-08-31T14:20:07;17.80;97.10
22153;DHT22;11242;50.536;12.688;2023-08-31T14:22:37;17.50;98.70
22153;DHT22;11242;50.536;12.688;2023-08-31T14:25:02;17.70;98.90
22153;DHT22;11242;50.536;12.688;2023-08-31T14:27:29;17.60;98.00
22153;DHT22;11242;50.536;12.688;2023-08-31T14:29:56;17.50;98.50
22153;DHT22;11242;50.536;12.688;2023-08-31T14:32:23;17.40;99.20
22153;DHT22;11242;50.536;12.688;2023-08-31T14:34:48;17.50;99.00
22153;DHT22;11242;50.536;12.688;2023-08-31T14:37:14;17.60;98.80
22153;DHT22;11242;50.536;12.688;2023-08-31T14:39:40;17.60;98.90
22153;DHT22;11242;50.536;12.688;2023-08-31T14:42:06;17.50;99.50
22153;DHT22;11242;50.536;12.688;2023-08-31T14:44:31;16.80;99.90
22153;DHT22;11242;50.536;12.688;2023-08-31T14:46:57;16.50;99.90
22153;DHT22;11242;50.536;12.688;2023-08-31T14:49:23;16.40;99.90
22153;DHT22;11242;50.536;12.688;2023-08-31T14:51:50;16.40;99.90
22153;DHT22;11242;50.536;12.688;2023-08-31T14:54:16;16.50;99.90
22153;DHT22;11242;50.536;12.688;2023-08-31T14:56:41;16.50;99.90
22153;DHT22;11242;50.536;12.688;2023-08-31T14:59:07;16.50;99.90
22153;DHT22;11242;50.536;12.688;2023-08-31T15:01:32;16.50;99.90
22153;DHT22;11242;50.536;12.688;2023-08-31T15:03:58;16.40;99.90
22153;DHT22;11242;50.536;12.688;2023-08-31T15:06:24;16.20;99.90
22153;DHT22;11242;50.536;12.688;2023-08-31T15:08:49;15.90;99.90
22153;DHT22;11242;50.536;12.688;2023-08-31T15:11:15;14.90;99.90
22153;DHT22;11242;50.536;12.688;2023-08-31T15:13:41;14.00;99.90
22153;DHT22;11242;50.536;12.688;2023-08-31T15:16:07;13.60;99.90
22153;DHT22;11242;50.536;12.688;2023-08-31T15:18:32;13.20;99.90
22153;DHT22;11242;50.536;12.688;2023-08-31T15:20:58;13.20;99.90
22153;DHT22;11242;50.536;12.688;2023-08-31T15:23:24;13.30;99.90
22153;DHT22;11242;50.536;12.688;2023-08-31T15:25:49;13.40;99.90
22153;DHT22;11242;50.536;12.688;2023-08-31T15:28:15;13.60;99.90
22153;DHT22;11242;50.536;12.688;2023-08-31T15:30:40;13.70;99.90
22153;DHT22;11242;50.536;12.688;2023-08-31T15:33:06;13.80;99.90
22153;DHT22;11242;50.536;12.688;2023-08-31T15:35:32;13.80;99.90
22153;DHT22;11242;50.536;12.688;2023-08-31T15:37:58;13.90;99.90
22153;DHT22;11242;50.536;12.688;2023-08-31T15:40:24;13.90;99.90